createdAt,value
2018-10-16T00:00:15.275Z,96257.04
2018-10-16T00:02:44.377Z,96249.36
2018-10-16T00:05:13.043Z,96253.78
2018-10-16T00:07:41.530Z,96247.38
2018-10-16T00:10:10.608Z,96251.22
2018-10-16T00:12:39.223Z,96255.64
2018-10-16T00:15:09.342Z,96254.36
2018-10-16T00:17:37.862Z,96255.77
2018-10-16T00:20:07.102Z,96255.52
2018-10-16T00:22:35.614Z,96251.20
2018-10-16T00:27:56.946Z,96241.33
2018-10-16T00:30:25.526Z,96243.54
2018-10-16T00:32:54.055Z,96237.47
2018-10-16T00:35:22.587Z,96250.75
2018-10-16T00:37:51.060Z,96246.56
2018-10-16T00:40:19.601Z,96247.47
2018-10-16T00:42:48.103Z,96238.52
2018-10-16T00:45:16.614Z,96237.95
2018-10-16T00:47:45.258Z,96238.98
2018-10-16T00:50:13.758Z,96239.33
2018-10-16T00:52:42.246Z,96232.12
2018-10-16T00:55:11.022Z,96233.50
2018-10-16T00:57:40.153Z,96236.77
2018-10-16T01:00:09.797Z,96231.98
2018-10-16T01:02:38.291Z,96232.34
2018-10-16T01:05:08.033Z,96232.69
2018-10-16T01:07:36.566Z,96236.44
2018-10-16T01:10:05.755Z,96236.41
2018-10-16T01:12:34.317Z,96225.11
2018-10-16T01:15:02.858Z,96229.89
2018-10-16T01:17:31.358Z,96225.23
2018-10-16T01:19:59.858Z,96221.72
2018-10-16T01:22:28.363Z,96225.94
2018-10-16T01:24:56.898Z,96219.66
2018-10-16T01:27:25.418Z,96217.19
2018-10-16T01:29:54.135Z,96217.66
2018-10-16T01:32:22.686Z,96213.82
2018-10-16T01:34:51.180Z,96211.36
2018-10-16T01:37:19.667Z,96212.20
2018-10-16T01:39:48.155Z,96215.22
2018-10-16T01:42:16.636Z,96216.59
2018-10-16T01:44:45.131Z,96216.27
2018-10-16T01:47:13.610Z,96212.64
2018-10-16T01:49:42.103Z,96221.61
2018-10-16T01:52:10.641Z,96220.80
2018-10-16T01:54:39.138Z,96216.84
2018-10-16T01:57:07.691Z,96212.17
2018-10-16T01:59:36.183Z,96210.79
2018-10-16T02:02:05.717Z,96204.84
2018-10-16T02:04:34.263Z,96213.55
2018-10-16T02:07:02.942Z,96205.89
2018-10-16T02:09:31.452Z,96205.89
2018-10-16T02:11:59.955Z,96206.81
2018-10-16T02:14:28.668Z,96214.02
2018-10-16T02:16:57.191Z,96212.03
2018-10-16T02:19:25.684Z,96203.53
2018-10-16T02:21:54.167Z,96205.02
2018-10-16T02:24:22.859Z,96207.70
2018-10-16T02:26:51.456Z,96208.56
2018-10-16T02:29:19.941Z,96207.15
2018-10-16T02:31:48.486Z,96209.93
2018-10-16T02:34:17.008Z,96214.59
2018-10-16T02:36:45.536Z,96211.34
2018-10-16T02:39:14.019Z,96213.69
2018-10-16T02:41:42.510Z,96216.48
2018-10-16T02:44:10.991Z,96206.23
2018-10-16T02:46:39.491Z,96212.87
2018-10-16T02:49:08.189Z,96216.92
2018-10-16T02:51:36.695Z,96217.98
2018-10-16T02:54:05.413Z,96217.16
2018-10-16T02:56:33.919Z,96221.83
2018-10-16T02:59:02.454Z,96217.27
2018-10-16T03:01:30.961Z,96217.04
2018-10-16T03:03:59.551Z,96214.02
2018-10-16T03:06:28.039Z,96216.46
2018-10-16T03:08:56.558Z,96217.52
2018-10-16T03:11:25.070Z,96217.96
2018-10-16T03:13:53.593Z,96226.02
2018-10-16T03:16:22.074Z,96224.02
2018-10-16T03:18:50.574Z,96221.69
2018-10-16T03:21:19.066Z,96219.11
2018-10-16T03:23:47.586Z,96222.95
2018-10-16T03:26:16.123Z,96220.89
2018-10-16T03:28:44.621Z,96213.78
2018-10-16T03:31:13.106Z,96219.59
2018-10-16T03:33:42.579Z,96219.91
2018-10-16T03:36:11.056Z,96216.67
2018-10-16T03:38:41.058Z,96226.55
2018-10-16T03:41:09.625Z,96228.28
2018-10-16T03:43:39.813Z,96234.69
2018-10-16T03:46:08.403Z,96232.23
2018-10-16T03:48:36.994Z,96233.03
2018-10-16T03:51:05.882Z,96235.00
2018-10-16T03:53:34.374Z,96235.59
2018-10-16T03:56:02.859Z,96235.69
2018-10-16T03:58:31.355Z,96232.58
2018-10-16T04:00:59.834Z,96235.02
2018-10-16T04:03:28.429Z,96236.67
2018-10-16T04:05:56.924Z,96233.66
2018-10-16T04:08:25.411Z,96230.75
2018-10-16T04:10:53.887Z,96236.45
2018-10-16T04:13:22.372Z,96240.99
2018-10-16T04:15:50.852Z,96239.72
2018-10-16T04:18:19.338Z,96239.48
2018-10-16T04:20:47.838Z,96241.67
2018-10-16T04:23:16.409Z,96239.00
2018-10-16T04:25:44.928Z,96244.92
2018-10-16T04:28:13.418Z,96236.33
2018-10-16T04:30:41.974Z,96244.72
2018-10-16T04:33:10.667Z,96245.72
2018-10-16T04:35:39.146Z,96250.38
2018-10-16T04:38:07.654Z,96255.34
2018-10-16T04:40:36.151Z,96252.63
2018-10-16T04:43:04.679Z,96253.34
2018-10-16T04:45:51.556Z,96249.63
2018-10-16T04:48:20.067Z,96244.59
2018-10-16T04:50:48.564Z,96252.60
2018-10-16T04:53:17.059Z,96257.83
2018-10-16T04:55:45.547Z,96256.10
2018-10-16T04:58:14.034Z,96250.64
2018-10-16T05:00:42.515Z,96255.65
2018-10-16T05:03:11.014Z,96256.22
2018-10-16T05:05:39.534Z,96261.19
2018-10-16T05:08:08.030Z,96266.37
2018-10-16T05:10:36.520Z,96266.91
2018-10-16T05:13:05.633Z,96271.75
2018-10-16T05:15:34.836Z,96267.66
2018-10-16T05:18:03.551Z,96270.10
2018-10-16T05:20:32.019Z,96269.34
2018-10-16T05:23:01.072Z,96275.26
2018-10-16T05:25:30.625Z,96281.34
2018-10-16T05:27:59.353Z,96294.81
2018-10-16T05:30:28.128Z,96290.61
2018-10-16T05:32:56.717Z,96289.92
2018-10-16T05:35:25.234Z,96287.38
2018-10-16T05:37:53.718Z,96288.65
2018-10-16T05:40:22.255Z,96292.79
2018-10-16T05:42:50.743Z,96295.95
2018-10-16T05:45:19.399Z,96301.06
2018-10-16T05:47:47.911Z,96301.06
2018-10-16T05:50:16.439Z,96296.32
2018-10-16T05:52:44.944Z,96300.95
2018-10-16T05:55:13.458Z,96299.78
2018-10-16T05:57:41.957Z,96307.95
2018-10-16T06:00:21.402Z,96306.56
2018-10-16T06:02:50.744Z,96315.89
2018-10-16T06:05:19.261Z,96314.77
2018-10-16T06:07:47.735Z,96318.11
2018-10-16T06:10:16.238Z,96320.18
2018-10-16T06:12:44.726Z,96320.33
2018-10-16T06:15:13.247Z,96328.50
2018-10-16T06:17:41.750Z,96323.75
2018-10-16T06:20:12.457Z,96328.68
2018-10-16T06:22:41.415Z,96332.94
2018-10-16T06:25:10.551Z,96336.22
2018-10-16T06:27:39.981Z,96328.98
2018-10-16T06:30:08.909Z,96339.00
2018-10-16T06:32:37.858Z,96329.73
2018-10-16T06:35:07.352Z,96330.48
2018-10-16T06:37:35.822Z,96328.69
2018-10-16T06:40:04.750Z,96330.73
2018-10-16T06:42:33.259Z,96335.75
2018-10-16T06:45:01.837Z,96338.25
2018-10-16T06:47:30.462Z,96342.80
2018-10-16T06:49:58.880Z,96344.45
2018-10-16T06:52:27.358Z,96345.16
2018-10-16T06:54:55.911Z,96343.34
2018-10-16T06:57:24.393Z,96346.87
2018-10-16T06:59:52.867Z,96344.32
2018-10-16T07:02:21.380Z,96349.11
2018-10-16T07:04:49.895Z,96350.37
2018-10-16T07:07:18.560Z,96353.30
2018-10-16T07:09:46.950Z,96353.78
2018-10-16T07:12:15.460Z,96360.34
2018-10-16T07:14:44.026Z,96355.67
2018-10-16T07:17:12.501Z,96360.72
2018-10-16T07:19:41.046Z,96364.19
2018-10-16T07:22:11.063Z,96364.87
2018-10-16T07:24:39.590Z,96367.09
2018-10-16T07:30:16.205Z,96369.25
2018-10-16T07:32:44.723Z,96374.30
2018-10-16T07:35:13.251Z,96374.75
2018-10-16T07:37:41.899Z,96375.41
2018-10-16T07:40:11.722Z,96374.06
2018-10-16T07:42:40.602Z,96378.60
2018-10-16T07:45:09.235Z,96376.65
2018-10-16T07:47:38.216Z,96377.83
2018-10-16T07:50:08.979Z,96377.11
2018-10-16T07:52:37.568Z,96376.80
2018-10-16T07:55:08.132Z,96377.27
2018-10-16T07:57:36.626Z,96371.80
2018-10-16T08:00:05.994Z,96373.47
2018-10-16T08:02:35.879Z,96374.69
2018-10-16T08:05:04.459Z,96371.56
2018-10-16T08:07:32.967Z,96374.73
2018-10-16T08:10:01.463Z,96373.25
2018-10-16T08:12:29.991Z,96376.72
2018-10-16T08:14:58.499Z,96376.94
2018-10-16T08:17:27.042Z,96376.38
2018-10-16T08:19:55.698Z,96377.48
2018-10-16T08:22:24.175Z,96375.70
2018-10-16T08:24:52.682Z,96377.36
2018-10-16T08:27:21.178Z,96375.20
2018-10-16T08:29:49.670Z,96375.19
2018-10-16T08:32:21.247Z,96367.75
2018-10-16T08:34:49.827Z,96367.05
2018-10-16T08:38:22.747Z,96370.48
2018-10-16T08:40:51.404Z,96370.70
2018-10-16T08:43:35.762Z,96369.37
2018-10-16T08:46:15.355Z,96368.14
2018-10-16T08:48:55.140Z,96365.36
2018-10-16T08:51:41.331Z,96370.44
2018-10-16T08:54:10.245Z,96367.50
2018-10-16T08:56:38.766Z,96369.55
2018-10-16T08:59:07.278Z,96364.23
2018-10-16T09:01:35.801Z,96366.37
2018-10-16T09:04:04.562Z,96367.61
2018-10-16T09:06:33.403Z,96363.61
2018-10-16T09:09:02.283Z,96366.45
2018-10-16T09:11:30.890Z,96359.28
2018-10-16T09:13:59.500Z,96360.72
2018-10-16T09:16:27.967Z,96360.58
2018-10-16T09:18:56.462Z,96359.41
2018-10-16T09:21:24.965Z,96354.77
2018-10-16T09:23:53.459Z,96356.85
2018-10-16T09:26:21.990Z,96355.15
2018-10-16T09:28:50.507Z,96355.11
2018-10-16T09:31:19.015Z,96357.05
2018-10-16T09:33:47.523Z,96352.67
2018-10-16T09:36:16.023Z,96362.73
2018-10-16T09:38:44.564Z,96360.31
2018-10-16T09:41:13.151Z,96358.82
2018-10-16T09:43:42.947Z,96356.38
2018-10-16T09:46:11.466Z,96360.98
2018-10-16T09:48:41.310Z,96357.27
2018-10-16T09:51:09.838Z,96354.16
2018-10-16T09:53:40.360Z,96355.55
2018-10-16T09:56:08.918Z,96353.48
2018-10-16T09:58:37.440Z,96350.48
2018-10-16T10:01:11.327Z,96353.28
2018-10-16T10:03:41.498Z,96352.54
2018-10-16T10:06:10.036Z,96349.23
2018-10-16T10:08:38.922Z,96344.80
2018-10-16T10:11:07.596Z,96346.13
2018-10-16T10:13:36.062Z,96343.11
2018-10-16T10:16:04.758Z,96339.42
2018-10-16T10:18:33.367Z,96339.58
2018-10-16T10:21:01.883Z,96337.33
2018-10-16T10:23:30.520Z,96343.29
2018-10-16T10:25:58.905Z,96345.16
2018-10-16T10:28:27.404Z,96335.22
2018-10-16T10:30:55.947Z,96338.23
2018-10-16T10:33:24.468Z,96336.86
2018-10-16T10:35:52.986Z,96338.64
2018-10-16T10:38:21.621Z,96337.03
2018-10-16T10:40:50.148Z,96333.41
2018-10-16T10:43:18.647Z,96338.16
2018-10-16T10:45:47.227Z,96328.90
2018-10-16T10:48:15.736Z,96330.86
2018-10-16T10:50:44.459Z,96332.95
2018-10-16T10:53:12.814Z,96331.69
2018-10-16T10:55:41.324Z,96331.36
2018-10-16T10:58:09.843Z,96334.67
2018-10-16T11:00:38.413Z,96329.77
2018-10-16T11:03:07.092Z,96331.03
2018-10-16T11:05:35.556Z,96322.72
2018-10-16T11:08:04.117Z,96324.59
2018-10-16T11:10:32.711Z,96318.91
2018-10-16T11:13:01.696Z,96319.64
2018-10-16T11:15:30.199Z,96327.45
2018-10-16T11:17:58.709Z,96326.66
2018-10-16T11:20:27.234Z,96330.75
2018-10-16T11:22:55.739Z,96333.81
2018-10-16T11:25:24.284Z,96322.66
2018-10-16T11:27:52.774Z,96332.88
2018-10-16T11:30:21.371Z,96327.41
2018-10-16T11:32:49.864Z,96272.25
2018-10-16T11:35:18.386Z,96324.89
2018-10-16T11:37:46.918Z,96324.19
2018-10-16T11:40:15.770Z,96312.64
2018-10-16T11:42:44.270Z,96314.19
2018-10-16T11:45:12.875Z,96316.93
2018-10-16T11:47:41.287Z,96316.56
2018-10-16T11:50:11.095Z,96316.31
2018-10-16T11:52:39.638Z,96315.25
2018-10-16T11:55:09.715Z,96319.15
2018-10-16T11:57:38.283Z,96319.80
2018-10-16T12:02:37.520Z,96319.19
2018-10-16T12:07:33.902Z,96312.90
2018-10-16T12:10:02.420Z,96315.36
2018-10-16T12:12:30.922Z,96314.88
2018-10-16T12:14:59.439Z,96314.98
2018-10-16T12:17:40.803Z,96311.44
2018-10-16T12:20:13.567Z,96316.88
2018-10-16T12:22:42.244Z,96314.20
2018-10-16T12:25:10.871Z,96315.88
2018-10-16T12:27:39.306Z,96317.98
2018-10-16T12:30:08.335Z,96311.98
2018-10-16T12:32:37.111Z,96310.95
2018-10-16T12:35:06.165Z,96310.44
2018-10-16T12:37:34.722Z,96311.52
2018-10-16T12:40:03.373Z,96311.25
2018-10-16T12:42:31.831Z,96302.89
2018-10-16T12:45:00.351Z,96304.67
2018-10-16T12:47:28.843Z,96305.92
2018-10-16T12:49:57.366Z,96305.63
2018-10-16T12:52:25.867Z,96299.73
2018-10-16T12:54:54.388Z,96302.48
2018-10-16T12:57:23.003Z,96300.05
2018-10-16T12:59:51.473Z,96296.63
2018-10-16T13:02:20.572Z,96301.17
2018-10-16T13:04:49.067Z,96295.84
2018-10-16T13:07:21.958Z,96295.56
2018-10-16T13:09:50.467Z,96306.95
2018-10-16T13:12:18.960Z,96302.72
2018-10-16T13:14:47.462Z,96305.23
2018-10-16T13:17:16.011Z,96308.57
2018-10-16T13:19:44.494Z,96304.33
2018-10-16T13:22:13.079Z,96311.37
2018-10-16T13:24:41.530Z,96303.30
2018-10-16T13:27:10.045Z,96304.03
2018-10-16T13:29:38.672Z,96307.36
2018-10-16T13:32:07.068Z,96306.95
2018-10-16T13:34:35.806Z,96309.77
2018-10-16T13:37:04.369Z,96308.88
2018-10-16T13:39:32.851Z,96309.56
2018-10-16T13:42:01.515Z,96306.53
2018-10-16T13:44:30.023Z,96309.73
2018-10-16T13:46:58.526Z,96315.98
2018-10-16T13:49:27.028Z,96313.39
2018-10-16T13:51:55.535Z,96308.51
2018-10-16T13:54:24.043Z,96315.25
2018-10-16T13:56:52.736Z,96317.19
2018-10-16T13:59:21.191Z,96317.30
2018-10-16T14:01:50.539Z,96320.63
2018-10-16T14:04:19.070Z,96312.96
2018-10-16T14:06:48.449Z,96315.81
2018-10-16T14:09:16.963Z,96314.86
2018-10-16T14:11:45.459Z,96313.87
2018-10-16T14:14:14.046Z,96315.77
2018-10-16T14:16:42.516Z,96311.67
2018-10-16T14:19:17.546Z,96317.02
2018-10-16T14:21:46.120Z,96313.71
2018-10-16T14:24:14.642Z,96314.02
2018-10-16T14:26:43.142Z,96316.14
2018-10-16T14:29:11.638Z,96319.45
2018-10-16T14:31:40.150Z,96319.47
2018-10-16T14:34:08.717Z,96316.31
2018-10-16T14:36:37.182Z,96317.20
2018-10-16T14:39:08.671Z,96319.44
2018-10-16T14:41:37.521Z,96323.20
2018-10-16T14:44:06.630Z,96322.86
2018-10-16T14:46:35.298Z,96321.52
2018-10-16T14:49:03.851Z,96323.65
2018-10-16T14:51:33.002Z,96328.95
2018-10-16T14:54:01.811Z,96324.92
2018-10-16T14:56:30.798Z,96323.60
2018-10-16T14:58:59.515Z,96322.16
2018-10-16T15:01:28.438Z,96322.66
2018-10-16T15:03:56.985Z,96327.55
2018-10-16T15:06:25.579Z,96329.31
2018-10-16T15:08:54.138Z,96326.51
2018-10-16T15:11:22.831Z,96329.44
2018-10-16T15:13:51.591Z,96326.38
2018-10-16T15:16:20.200Z,96326.03
2018-10-16T15:18:48.703Z,96320.55
2018-10-16T15:21:17.212Z,96326.00
2018-10-16T15:23:45.790Z,96323.41
2018-10-16T15:26:14.294Z,96324.45
2018-10-16T15:28:43.645Z,96326.97
2018-10-16T15:31:12.154Z,96328.94
2018-10-16T15:33:41.142Z,96329.42
2018-10-16T15:36:09.678Z,96334.03
2018-10-16T15:38:38.204Z,96328.69
2018-10-16T15:41:07.285Z,96332.95
2018-10-16T15:43:35.860Z,96334.73
2018-10-16T15:46:04.461Z,96333.72
2018-10-16T15:48:32.951Z,96332.89
2018-10-16T15:51:01.454Z,96342.30
2018-10-16T15:53:30.009Z,96334.50
2018-10-16T15:55:58.622Z,96337.41
2018-10-16T15:58:27.093Z,96346.75
2018-10-16T16:00:55.630Z,96343.55
2018-10-16T16:03:25.009Z,96345.84
2018-10-16T16:05:53.648Z,96341.81
2018-10-16T16:08:22.158Z,96352.86
2018-10-16T16:10:50.684Z,96356.59
2018-10-16T16:13:19.195Z,96357.92
2018-10-16T16:15:47.753Z,96360.49
2018-10-16T16:18:16.331Z,96366.20
2018-10-16T16:20:44.800Z,96362.65
2018-10-16T16:23:13.299Z,96367.23
2018-10-16T16:25:41.853Z,96368.05
2018-10-16T16:28:10.369Z,96373.57
2018-10-16T16:30:38.872Z,96370.47
2018-10-16T16:33:07.409Z,96371.79
2018-10-16T16:35:35.943Z,96375.55
2018-10-16T16:38:05.884Z,96381.23
2018-10-16T16:40:34.430Z,96376.65
2018-10-16T16:43:02.966Z,96375.53
2018-10-16T16:45:31.560Z,96376.66
2018-10-16T16:48:00.061Z,96381.66
2018-10-16T16:50:30.233Z,96381.61
2018-10-16T16:52:58.796Z,96387.08
2018-10-16T16:55:27.291Z,96387.77
2018-10-16T16:57:55.844Z,96385.80
2018-10-16T17:00:24.338Z,96389.83
2018-10-16T17:02:52.838Z,96388.86
2018-10-16T17:05:21.343Z,96392.27
2018-10-16T17:07:49.879Z,96397.41
2018-10-16T17:10:18.402Z,96396.46
2018-10-16T17:12:46.960Z,96395.12
2018-10-16T17:15:16.580Z,96394.13
2018-10-16T17:17:46.282Z,96394.18
2018-10-16T17:20:27.416Z,96389.86
2018-10-16T17:22:55.953Z,96392.95
2018-10-16T17:25:24.685Z,96394.72
2018-10-16T17:27:53.091Z,96391.81
2018-10-16T17:30:21.625Z,96386.73
2018-10-16T17:32:50.157Z,96394.50
2018-10-16T17:35:18.687Z,96394.72
2018-10-16T17:37:47.217Z,96396.73
2018-10-16T17:40:17.018Z,96393.15
2018-10-16T17:42:45.827Z,96398.17
2018-10-16T17:45:15.693Z,96384.52
2018-10-16T17:47:44.269Z,96399.62
2018-10-16T17:50:14.746Z,96405.94
2018-10-16T17:52:43.259Z,96403.05
2018-10-16T17:55:12.822Z,96406.41
2018-10-16T17:57:41.493Z,96399.84
2018-10-16T18:00:13.304Z,96398.64
2018-10-16T18:02:43.319Z,96410.44
2018-10-16T18:05:12.324Z,96406.30
2018-10-16T18:07:40.852Z,96405.99
2018-10-16T18:10:09.571Z,96405.92
2018-10-16T18:12:38.075Z,96409.91
2018-10-16T18:15:08.253Z,96407.54
2018-10-16T18:17:36.721Z,96411.87
2018-10-16T18:20:06.426Z,96418.78
2018-10-16T18:22:34.930Z,96417.34
2018-10-16T18:25:03.453Z,96420.22
2018-10-16T18:27:31.973Z,96413.88
2018-10-16T18:30:00.492Z,96412.20
2018-10-16T18:32:28.982Z,96413.42
2018-10-16T18:34:57.498Z,96415.30
2018-10-16T18:37:26.119Z,96408.78
2018-10-16T18:39:54.671Z,96410.52
2018-10-16T18:42:23.142Z,96412.52
2018-10-16T18:44:51.696Z,96422.70
2018-10-16T18:47:20.212Z,96425.96
2018-10-16T18:49:48.780Z,96418.11
2018-10-16T18:52:17.286Z,96423.66
2018-10-16T18:54:45.796Z,96425.05
2018-10-16T18:57:14.385Z,96422.10
2018-10-16T18:59:42.855Z,96419.20
2018-10-16T19:02:11.392Z,96419.59
2018-10-16T19:16:09.567Z,96416.50
2018-10-16T19:18:38.313Z,96418.62
2018-10-16T19:21:07.248Z,96423.42
2018-10-16T19:23:35.763Z,96421.02
2018-10-16T19:26:04.307Z,96422.10
2018-10-16T19:28:32.842Z,96417.76
2018-10-16T19:31:01.362Z,96430.34
2018-10-16T19:33:30.050Z,96421.53
2018-10-16T19:35:58.599Z,96420.84
2018-10-16T19:38:27.096Z,96415.81
2018-10-16T19:40:55.612Z,96421.19
2018-10-16T19:43:24.128Z,96423.32
2018-10-16T19:45:52.641Z,96420.73
2018-10-16T19:48:21.165Z,96422.48
2018-10-16T19:50:49.671Z,96421.59
2018-10-16T19:53:18.200Z,96419.00
2018-10-16T19:55:46.719Z,96422.38
2018-10-16T19:58:15.247Z,96427.19
2018-10-16T20:00:43.791Z,96423.46
2018-10-16T20:03:13.178Z,96378.16
2018-10-16T20:05:41.659Z,96427.97
2018-10-16T20:08:10.199Z,96425.95
2018-10-16T20:10:38.715Z,96428.13
2018-10-16T20:13:07.209Z,96430.95
2018-10-16T20:15:35.782Z,96428.25
2018-10-16T20:18:04.247Z,96432.38
2018-10-16T20:20:32.772Z,96429.06
2018-10-16T20:23:01.410Z,96421.81
2018-10-16T20:25:30.035Z,96434.63
2018-10-16T20:27:58.895Z,96430.89
2018-10-16T20:30:27.399Z,96429.53
2018-10-16T20:32:55.947Z,96434.73
2018-10-16T20:35:24.470Z,96436.22
2018-10-16T20:40:45.218Z,96435.25
2018-10-16T20:43:13.730Z,96435.24
2018-10-16T20:45:42.259Z,96432.17
2018-10-16T20:48:10.762Z,96430.09
2018-10-16T20:50:39.318Z,96423.10
2018-10-16T20:53:07.841Z,96425.54
2018-10-16T20:55:36.363Z,96426.69
2018-10-16T20:58:04.994Z,96422.41
2018-10-16T21:00:40.298Z,96418.41
2018-10-16T21:03:08.799Z,96419.56
2018-10-16T21:05:37.342Z,96422.49
2018-10-16T21:08:05.829Z,96417.67
2018-10-16T21:10:34.363Z,96414.86
2018-10-16T21:13:03.031Z,96414.68
2018-10-16T21:15:31.509Z,96414.62
2018-10-16T21:18:00.019Z,96413.66
2018-10-16T21:20:28.520Z,96410.26
2018-10-16T21:22:57.100Z,96418.41
2018-10-16T21:25:25.586Z,96417.48
2018-10-16T21:27:54.097Z,96413.39
2018-10-16T21:30:22.634Z,96419.14
2018-10-16T21:32:51.142Z,96418.16
2018-10-16T21:35:19.648Z,96416.78
2018-10-16T21:37:48.167Z,96416.72
2018-10-16T21:40:16.686Z,96412.17
2018-10-16T21:42:45.303Z,96415.52
2018-10-16T21:45:13.858Z,96417.95
2018-10-16T21:47:42.336Z,96414.39
2018-10-16T21:50:10.862Z,96410.41
2018-10-16T21:52:39.394Z,96413.47
2018-10-16T21:55:08.057Z,96407.23
2018-10-16T21:57:36.547Z,96405.88
2018-10-16T22:00:06.171Z,96410.20
2018-10-16T22:02:40.447Z,96408.19
2018-10-16T22:05:09.062Z,96402.81
2018-10-16T22:07:37.536Z,96402.55
2018-10-16T22:10:06.592Z,96401.36
2018-10-16T22:12:35.102Z,96403.80
2018-10-16T22:15:03.687Z,96403.94
2018-10-16T22:17:32.163Z,96404.95
2018-10-16T22:20:00.678Z,96399.28
2018-10-16T22:22:29.199Z,96401.25
2018-10-16T22:25:04.103Z,96405.45
2018-10-16T22:27:32.664Z,96402.67
2018-10-16T22:30:01.403Z,96402.73
2018-10-16T22:32:29.982Z,96401.23
2018-10-16T22:34:58.508Z,96401.11
2018-10-16T22:37:27.018Z,96405.38
2018-10-16T22:39:55.527Z,96406.84
2018-10-16T22:42:24.057Z,96404.27
2018-10-16T22:44:52.575Z,96409.73
2018-10-16T22:47:21.077Z,96403.05
2018-10-16T22:49:49.575Z,96410.42
2018-10-16T22:52:18.135Z,96408.91
2018-10-16T22:54:46.639Z,96404.61
2018-10-16T22:57:15.158Z,96401.29
2018-10-16T22:59:44.183Z,96401.66
2018-10-16T23:02:12.795Z,96402.09
2018-10-16T23:04:41.359Z,96410.64
2018-10-16T23:07:10.010Z,96402.36
2018-10-16T23:09:38.463Z,96405.13
2018-10-16T23:12:07.390Z,96399.73
2018-10-16T23:14:35.888Z,96405.15
2018-10-16T23:17:04.501Z,96400.24
2018-10-16T23:19:33.279Z,96400.48
2018-10-16T23:22:01.775Z,96397.80
2018-10-16T23:24:30.276Z,96399.92
2018-10-16T23:26:58.786Z,96400.06
2018-10-16T23:29:27.295Z,96402.55
2018-10-16T23:31:55.798Z,96397.66
2018-10-16T23:34:24.318Z,96400.91
2018-10-16T23:36:52.882Z,96396.84
2018-10-16T23:39:21.442Z,96395.30
2018-10-16T23:41:49.922Z,96390.50
2018-10-16T23:44:18.463Z,96394.35
2018-10-16T23:46:46.957Z,96393.00
2018-10-16T23:49:15.502Z,96393.83
2018-10-16T23:51:43.994Z,96398.71
2018-10-16T23:54:16.471Z,96395.90
2018-10-16T23:56:44.994Z,96395.45
2018-10-16T23:59:13.592Z,96392.55
